Time;durP1;ratioP1;P1;durP2;ratioP2;P2;SDS_P1;SDS_P2;PMS_P1;PMS_P2;Temp;Humidity;BMP_temperature;BMP_pressure;BME280_temperature;BME280_humidity;BME280_pressure;Samples;Min_cycle;Max_cycle;Signal;HPM_P1;HPM_P2
2021/09/06 00:00:12;;;;;;;31.08;23.80;;;18.20;99.90;;;;;;5057334;28;20056;-88
2021/09/06 00:02:41;;;;;;;30.77;23.70;;;18.10;99.90;;;;;;5057167;28;20084;-88
2021/09/06 00:05:09;;;;;;;30.38;23.30;;;18.10;99.90;;;;;;5057333;28;20117;-88
2021/09/06 00:07:36;;;;;;;30.42;23.58;;;18.10;99.90;;;;;;5056447;28;20041;-88
2021/09/06 00:10:21;;;;;;;30.70;23.88;;;18.10;99.90;;;;;;5057066;28;20449;-90
2021/09/06 00:12:48;;;;;;;33.08;24.08;;;18.00;99.90;;;;;;5057317;28;20114;-92
2021/09/06 00:15:16;;;;;;;30.50;24.35;;;18.00;99.90;;;;;;5056928;28;20060;-90
2021/09/06 00:17:45;;;;;;;30.70;25.40;;;18.00;99.90;;;;;;5057416;28;20053;-90
2021/09/06 00:20:13;;;;;;;32.47;24.67;;;18.00;99.90;;;;;;5056285;28;20088;-89
2021/09/06 00:22:39;;;;;;;34.30;24.98;;;18.00;99.90;;;;;;5056243;28;20251;-89
2021/09/06 00:25:07;;;;;;;29.65;24.65;;;18.00;99.90;;;;;;5057199;28;20159;-89
2021/09/06 00:27:34;;;;;;;32.70;25.17;;;18.00;99.90;;;;;;5059652;28;20051;-90
2021/09/06 00:30:01;;;;;;;32.00;24.67;;;18.00;99.90;;;;;;5061161;28;20049;-91
2021/09/06 00:32:28;;;;;;;30.75;24.15;;;18.00;99.90;;;;;;5061038;28;20143;-90
2021/09/06 00:34:56;;;;;;;32.90;26.25;;;17.90;99.90;;;;;;5062400;28;20110;-90
2021/09/06 00:37:23;;;;;;;32.08;24.63;;;17.90;99.90;;;;;;5062149;28;20085;-90
2021/09/06 00:39:50;;;;;;;32.95;25.75;;;17.80;99.90;;;;;;5061087;28;20110;-90
2021/09/06 00:42:17;;;;;;;33.08;26.17;;;17.70;99.90;;;;;;5061124;28;20092;-90
2021/09/06 00:44:44;;;;;;;32.05;25.23;;;17.60;99.90;;;;;;5061078;28;20143;-90
2021/09/06 00:47:11;;;;;;;36.60;26.65;;;17.60;99.90;;;;;;5062466;28;20065;-89
2021/09/06 00:49:38;;;;;;;35.72;26.45;;;17.60;99.90;;;;;;5062213;28;20073;-89
2021/09/06 00:52:07;;;;;;;34.83;26.10;;;17.50;99.90;;;;;;5061220;28;20489;-89
2021/09/06 00:54:34;;;;;;;41.08;27.15;;;17.50;99.90;;;;;;5060942;28;20113;-89
2021/09/06 00:57:01;;;;;;;33.30;26.50;;;17.50;99.90;;;;;;5061167;28;20048;-89
2021/09/06 00:59:28;;;;;;;32.20;26.25;;;17.40;99.90;;;;;;5060926;28;20052;-89
2021/09/06 01:01:55;;;;;;;35.72;27.27;;;17.40;99.90;;;;;;5060858;28;20533;-89
2021/09/06 01:04:22;;;;;;;36.50;27.58;;;17.40;99.90;;;;;;5060598;28;20080;-89
2021/09/06 01:06:49;;;;;;;36.55;27.90;;;17.40;99.90;;;;;;5060662;28;20133;-89
2021/09/06 01:09:18;;;;;;;36.88;27.70;;;17.40;99.90;;;;;;5060334;28;20095;-90
2021/09/06 01:11:44;;;;;;;37.10;27.60;;;17.40;99.90;;;;;;5060086;28;20064;-90
2021/09/06 01:14:11;;;;;;;37.33;27.63;;;17.40;99.90;;;;;;5060957;28;20099;-90
2021/09/06 01:16:38;;;;;;;42.67;29.17;;;17.40;99.90;;;;;;5060922;28;20079;-90
2021/09/06 01:19:05;;;;;;;34.53;27.23;;;17.40;99.90;;;;;;5060322;28;20041;-90
2021/09/06 01:21:32;;;;;;;36.65;27.30;;;17.40;99.90;;;;;;5061102;28;20205;-90
2021/09/06 01:23:59;;;;;;;36.65;27.10;;;17.40;99.90;;;;;;5061189;28;20087;-90
2021/09/06 01:26:28;;;;;;;34.97;27.05;;;17.30;99.90;;;;;;5061058;28;20053;-90
2021/09/06 01:28:55;;;;;;;35.67;26.90;;;17.30;99.90;;;;;;5061261;28;20104;-90
2021/09/06 01:31:23;;;;;;;32.75;26.70;;;17.30;99.90;;;;;;5060372;28;20136;-90
2021/09/06 01:33:50;;;;;;;32.78;25.30;;;17.30;99.90;;;;;;5061723;28;20053;-89
2021/09/06 01:36:17;;;;;;;34.25;25.63;;;17.20;99.90;;;;;;5062589;28;20059;-90
2021/09/06 01:38:44;;;;;;;32.20;25.55;;;17.20;99.90;;;;;;5061576;28;20520;-90
2021/09/06 01:41:11;;;;;;;33.83;26.30;;;17.10;99.90;;;;;;5060943;28;20064;-90
2021/09/06 01:43:39;;;;;;;36.13;26.20;;;17.10;99.90;;;;;;5060636;28;20049;-90
2021/09/06 01:46:06;;;;;;;34.85;25.52;;;17.00;99.90;;;;;;5061327;28;20065;-90
2021/09/06 01:48:33;;;;;;;34.15;26.65;;;17.00;99.90;;;;;;5060166;28;20136;-89
2021/09/06 01:51:00;;;;;;;34.17;26.10;;;16.90;99.90;;;;;;5059741;28;20082;-90
2021/09/06 01:53:27;;;;;;;33.05;25.98;;;16.90;99.90;;;;;;5061483;28;20106;-89
2021/09/06 01:55:54;;;;;;;35.17;26.48;;;16.90;99.90;;;;;;5060917;28;20505;-89
2021/09/06 01:58:21;;;;;;;32.35;25.60;;;16.80;99.90;;;;;;5061086;28;20101;-89
2021/09/06 02:00:49;;;;;;;33.47;25.00;;;16.80;99.90;;;;;;5061401;28;20087;-89
2021/09/06 02:03:16;;;;;;;32.25;25.35;;;16.70;99.90;;;;;;5060566;28;20084;-90
2021/09/06 02:05:43;;;;;;;33.47;26.00;;;16.70;99.90;;;;;;5061326;28;20136;-89
2021/09/06 02:08:10;;;;;;;36.05;26.20;;;16.70;99.90;;;;;;5062251;28;20096;-89
2021/09/06 02:10:37;;;;;;;32.15;25.27;;;16.70;99.90;;;;;;5061308;28;20059;-89
2021/09/06 02:13:04;;;;;;;31.65;25.15;;;16.60;99.90;;;;;;5062123;28;20356;-89
2021/09/06 02:15:31;;;;;;;35.22;26.15;;;16.60;99.90;;;;;;5061863;28;20140;-89
2021/09/06 02:17:59;;;;;;;33.63;25.10;;;16.60;99.90;;;;;;5062894;28;20052;-89
2021/09/06 02:20:26;;;;;;;32.88;25.05;;;16.60;99.90;;;;;;5070857;28;20030;-90
2021/09/06 02:22:53;;;;;;;31.88;25.05;;;16.60;99.90;;;;;;5077717;28;20056;-89
2021/09/06 02:25:20;;;;;;;34.42;25.17;;;16.60;99.90;;;;;;5077917;28;20037;-88
2021/09/06 02:27:46;;;;;;;32.05;24.85;;;16.60;99.90;;;;;;5078535;28;20036;-89
2021/09/06 02:30:14;;;;;;;32.45;23.70;;;16.50;99.90;;;;;;5077786;28;20060;-88
2021/09/06 02:32:41;;;;;;;33.65;25.23;;;16.40;99.90;;;;;;5077670;28;20045;-88
2021/09/06 02:35:10;;;;;;;36.15;25.52;;;16.40;99.90;;;;;;5076516;28;20035;-88
2021/09/06 02:37:37;;;;;;;35.03;25.30;;;16.40;99.90;;;;;;5060913;28;20045;-89
2021/09/06 02:40:04;;;;;;;34.17;26.17;;;16.40;99.90;;;;;;5060457;28;20056;-89
2021/09/06 02:42:31;;;;;;;35.78;25.90;;;16.40;99.90;;;;;;5059759;28;20640;-89
2021/09/06 02:44:58;;;;;;;35.58;26.55;;;16.30;99.90;;;;;;5059191;28;20083;-88
2021/09/06 02:47:28;;;;;;;35.33;26.80;;;16.20;99.90;;;;;;5058905;28;20052;-89
2021/09/06 02:49:55;;;;;;;35.05;26.80;;;16.20;99.90;;;;;;5057938;28;20128;-89
2021/09/06 02:52:23;;;;;;;37.22;26.13;;;16.20;99.90;;;;;;5059788;28;20049;-88
2021/09/06 02:54:50;;;;;;;35.08;26.73;;;16.20;99.90;;;;;;5059448;28;20097;-89
2021/09/06 02:57:17;;;;;;;36.80;26.83;;;16.20;99.90;;;;;;5058842;28;20045;-89
2021/09/06 02:59:44;;;;;;;36.50;27.38;;;16.10;99.90;;;;;;5059229;28;20285;-89
2021/09/06 03:02:11;;;;;;;34.38;25.95;;;16.10;99.90;;;;;;5057323;28;20053;-88
2021/09/06 03:04:38;;;;;;;34.03;27.35;;;16.10;99.90;;;;;;5058425;28;20072;-89
2021/09/06 03:07:05;;;;;;;34.65;26.75;;;16.20;99.90;;;;;;5058844;28;20084;-89
2021/09/06 03:09:33;;;;;;;37.28;27.05;;;16.20;99.90;;;;;;5059117;28;20084;-88
2021/09/06 03:12:00;;;;;;;33.83;25.52;;;16.20;99.90;;;;;;5059181;28;20088;-89
2021/09/06 03:14:27;;;;;;;34.22;26.25;;;16.20;99.90;;;;;;5059663;28;20569;-89
2021/09/06 03:16:54;;;;;;;36.30;27.90;;;16.20;99.90;;;;;;5058062;28;20123;-89
2021/09/06 03:19:21;;;;;;;36.47;26.02;;;16.10;99.90;;;;;;5058345;28;20052;-88
2021/09/06 03:21:48;;;;;;;35.85;26.45;;;16.10;99.90;;;;;;5058832;28;20132;-89
2021/09/06 03:24:15;;;;;;;35.67;26.13;;;16.10;99.90;;;;;;5057142;28;20109;-89
2021/09/06 03:26:43;;;;;;;37.13;27.35;;;16.00;99.90;;;;;;5057982;28;20072;-89
2021/09/06 03:29:10;;;;;;;40.28;27.10;;;16.00;99.90;;;;;;5057251;28;20084;-89
2021/09/06 03:31:37;;;;;;;34.72;26.23;;;15.90;99.90;;;;;;5057971;28;20080;-87
2021/09/06 03:34:04;;;;;;;37.78;24.85;;;15.90;99.90;;;;;;5057184;28;20088;-88
2021/09/06 03:36:31;;;;;;;35.17;25.45;;;15.90;99.90;;;;;;5057441;28;20124;-89
2021/09/06 03:38:58;;;;;;;34.10;24.00;;;15.80;99.90;;;;;;5057045;28;20112;-89
2021/09/06 03:41:25;;;;;;;35.67;25.67;;;15.80;99.90;;;;;;5057079;28;20049;-89
2021/09/06 03:43:53;;;;;;;39.83;26.73;;;15.70;99.90;;;;;;5056773;28;20578;-89
2021/09/06 03:46:20;;;;;;;37.83;25.60;;;15.70;99.90;;;;;;5056432;28;20087;-89
2021/09/06 03:48:47;;;;;;;37.67;26.42;;;15.60;99.90;;;;;;5056999;28;20045;-89
2021/09/06 03:51:14;;;;;;;34.35;25.40;;;15.60;99.90;;;;;;5056393;28;20139;-89
2021/09/06 03:53:41;;;;;;;36.25;25.33;;;15.70;99.90;;;;;;5057385;28;20076;-88
2021/09/06 03:56:08;;;;;;;37.20;26.10;;;15.60;99.90;;;;;;5057381;28;20108;-89
2021/09/06 03:58:34;;;;;;;36.80;26.70;;;15.60;99.90;;;;;;5058569;28;20162;-89
2021/09/06 04:01:03;;;;;;;41.58;25.50;;;15.60;99.90;;;;;;5056839;28;20135;-89
2021/09/06 04:03:30;;;;;;;35.10;25.92;;;15.60;99.90;;;;;;5057414;28;20487;-88
2021/09/06 04:05:56;;;;;;;33.97;26.58;;;15.60;99.90;;;;;;5058744;28;20053;-89
2021/09/06 04:08:25;;;;;;;33.25;24.52;;;15.60;99.90;;;;;;5057475;28;20077;-88
2021/09/06 04:10:52;;;;;;;35.22;24.70;;;15.50;99.90;;;;;;5056926;28;20557;-90
2021/09/06 04:13:19;;;;;;;34.45;25.25;;;15.50;99.90;;;;;;5057836;28;20140;-88
2021/09/06 04:15:47;;;;;;;31.67;24.77;;;15.50;99.90;;;;;;5057364;28;20049;-89
2021/09/06 04:18:16;;;;;;;32.08;23.85;;;15.40;99.90;;;;;;5057581;28;20048;-88
2021/09/06 04:20:43;;;;;;;32.75;25.65;;;15.40;99.90;;;;;;5070821;22;20084;-81
2021/09/06 04:23:10;;;;;;;33.85;25.15;;;15.40;99.90;;;;;;5057549;28;20045;-80
2021/09/06 04:25:37;;;;;;;37.15;26.52;;;15.30;99.90;;;;;;5056339;28;20136;-80
2021/09/06 04:28:04;;;;;;;35.25;25.90;;;15.30;99.90;;;;;;5062996;28;20081;-80
2021/09/06 04:30:31;;;;;;;33.85;25.25;;;15.30;99.90;;;;;;5063613;28;20056;-81
2021/09/06 04:32:58;;;;;;;35.28;24.95;;;15.30;99.90;;;;;;5107327;22;20048;-77
2021/09/06 04:35:26;;;;;;;33.92;25.02;;;15.20;99.90;;;;;;5088223;28;20135;-78
2021/09/06 04:37:53;;;;;;;35.38;24.70;;;15.30;99.90;;;;;;5090918;28;20447;-78
2021/09/06 04:40:20;;;;;;;33.80;24.67;;;15.30;99.90;;;;;;5090976;28;20134;-79
2021/09/06 04:42:48;;;;;;;34.78;25.90;;;15.40;99.90;;;;;;5091821;28;20058;-78
2021/09/06 04:45:16;;;;;;;33.67;24.58;;;15.40;99.90;;;;;;5091987;28;20197;-77
2021/09/06 04:47:43;;;;;;;33.08;25.08;;;15.30;99.90;;;;;;5092932;28;20139;-78
2021/09/06 04:50:11;;;;;;;33.53;25.77;;;15.30;99.90;;;;;;5094856;28;20067;-78
2021/09/06 04:52:45;;;;;;;35.92;24.65;;;15.30;99.90;;;;;;5096634;28;20091;-78
2021/09/06 04:55:12;;;;;;;33.42;25.70;;;15.40;99.90;;;;;;5092965;28;20127;-78
2021/09/06 04:57:41;;;;;;;31.45;24.42;;;15.40;99.90;;;;;;5092610;28;20083;-78
2021/09/06 05:00:12;;;;;;;33.50;25.05;;;15.30;99.90;;;;;;5092448;28;20183;-78
2021/09/06 05:02:39;;;;;;;31.20;24.30;;;15.30;99.90;;;;;;5092800;28;20146;-78
2021/09/06 05:05:07;;;;;;;35.60;25.13;;;15.30;99.90;;;;;;5090671;28;20511;-78
2021/09/06 05:07:33;;;;;;;34.75;25.10;;;15.30;99.90;;;;;;5092205;28;20071;-78
2021/09/06 05:10:02;;;;;;;33.78;26.60;;;15.30;99.90;;;;;;5093199;28;20052;-79
2021/09/06 05:12:28;;;;;;;34.08;25.30;;;15.30;99.90;;;;;;5093675;28;20048;-79
2021/09/06 05:14:55;;;;;;;34.60;24.90;;;15.40;99.90;;;;;;5097313;28;20534;-78
2021/09/06 05:17:22;;;;;;;31.55;24.77;;;15.40;99.90;;;;;;5096774;28;20441;-79
2021/09/06 05:19:49;;;;;;;31.25;23.60;;;15.50;99.90;;;;;;5096200;28;20046;-79
2021/09/06 05:22:16;;;;;;;35.75;24.38;;;15.50;99.90;;;;;;5094964;28;20052;-79
2021/09/06 05:24:43;;;;;;;33.42;25.05;;;15.50;99.90;;;;;;5095393;28;20054;-77
2021/09/06 05:27:11;;;;;;;35.92;24.60;;;15.60;99.90;;;;;;5092350;28;20040;-78
2021/09/06 05:29:38;;;;;;;34.28;23.60;;;15.60;99.90;;;;;;5095858;28;20048;-78
2021/09/06 05:32:06;;;;;;;30.33;24.13;;;15.70;99.90;;;;;;5093644;28;20074;-79
2021/09/06 05:34:33;;;;;;;33.70;23.40;;;15.70;99.90;;;;;;5093820;28;20443;-78
2021/09/06 05:37:00;;;;;;;30.15;23.45;;;15.80;99.90;;;;;;5093499;28;20097;-76
2021/09/06 05:39:27;;;;;;;31.05;24.08;;;15.90;99.90;;;;;;5093853;28;20072;-76
2021/09/06 05:41:54;;;;;;;31.92;23.40;;;15.90;99.90;;;;;;5092980;28;20130;-77
2021/09/06 05:44:22;;;;;;;33.63;23.58;;;16.00;99.90;;;;;;5092892;28;20134;-75
2021/09/06 05:46:49;;;;;;;32.40;24.05;;;16.00;99.90;;;;;;5087721;28;20487;-76
2021/09/06 05:49:16;;;;;;;36.97;24.02;;;16.10;99.90;;;;;;5079052;28;20040;-76
2021/09/06 05:51:43;;;;;;;35.38;24.25;;;16.10;99.90;;;;;;5084108;28;20048;-77
2021/09/06 05:54:10;;;;;;;33.58;22.52;;;16.10;99.90;;;;;;5092660;28;20518;-76
2021/09/06 05:56:37;;;;;;;36.97;23.65;;;16.20;99.90;;;;;;5082749;28;20128;-76
2021/09/06 05:59:03;;;;;;;29.98;23.08;;;16.20;99.90;;;;;;5072994;28;20068;-76
2021/09/06 06:01:32;;;;;;;34.40;23.75;;;16.30;99.90;;;;;;5072484;28;20059;-76
2021/09/06 06:03:59;;;;;;;34.63;23.25;;;16.40;99.90;;;;;;5073100;28;20059;-75
2021/09/06 06:06:25;;;;;;;35.97;24.27;;;16.40;99.90;;;;;;5073865;28;20083;-77
2021/09/06 06:08:52;;;;;;;30.35;23.83;;;16.50;99.90;;;;;;5072961;28;20131;-76
2021/09/06 06:11:19;;;;;;;35.75;23.25;;;16.60;99.90;;;;;;5072942;28;20131;-74
2021/09/06 06:13:46;;;;;;;33.78;23.52;;;16.70;99.90;;;;;;5071457;28;20130;-75
2021/09/06 06:16:13;;;;;;;34.65;23.90;;;16.70;99.90;;;;;;5077827;28;20083;-78
2021/09/06 06:18:41;;;;;;;33.33;23.75;;;16.90;99.90;;;;;;5092489;28;20040;-78
2021/09/06 06:21:08;;;;;;;37.15;23.15;;;16.90;99.90;;;;;;5093703;28;20087;-78
2021/09/06 06:23:35;;;;;;;40.33;23.08;;;17.20;99.90;;;;;;5094389;28;20550;-78
2021/09/06 06:26:02;;;;;;;30.88;23.73;;;17.70;99.90;;;;;;5075320;28;20121;-78
2021/09/06 06:28:29;;;;;;;28.33;21.40;;;18.40;99.90;;;;;;5074513;28;20052;-77
2021/09/06 06:30:56;;;;;;;30.50;22.17;;;19.30;99.90;;;;;;5073977;28;20092;-77
2021/09/06 06:33:23;;;;;;;35.40;22.15;;;20.10;99.90;;;;;;5073737;28;20551;-78
2021/09/06 06:35:51;;;;;;;35.15;21.90;;;20.80;99.90;;;;;;5074437;28;20049;-78
2021/09/06 06:38:18;;;;;;;43.10;23.13;;;21.40;99.90;;;;;;5076023;28;20515;-77
2021/09/06 06:40:47;;;;;;;25.65;20.20;;;22.00;99.90;;;;;;5076604;28;20131;-78
2021/09/06 06:43:14;;;;;;;26.77;20.13;;;22.60;99.90;;;;;;5078918;28;20102;-77
2021/09/06 06:45:41;;;;;;;23.48;19.67;;;23.10;99.90;;;;;;5091673;28;20048;-78
2021/09/06 06:48:08;;;;;;;22.38;18.95;;;23.30;99.90;;;;;;5090535;28;20079;-78
2021/09/06 06:50:34;;;;;;;25.67;19.42;;;23.10;99.90;;;;;;5085236;28;20044;-78
2021/09/06 06:53:03;;;;;;;25.40;19.83;;;23.00;99.90;;;;;;5091485;28;20075;-78
2021/09/06 06:55:30;;;;;;;25.73;19.58;;;23.00;99.90;;;;;;5092534;28;20079;-79
2021/09/06 06:57:57;;;;;;;21.83;19.52;;;23.20;99.90;;;;;;5093385;28;20135;-78
2021/09/06 07:00:23;;;;;;;24.02;19.40;;;23.30;99.90;;;;;;5092710;28;20131;-77
2021/09/06 07:02:51;;;;;;;24.42;20.13;;;23.50;99.90;;;;;;5093448;28;20166;-77
2021/09/06 07:05:18;;;;;;;24.13;19.17;;;23.70;99.90;;;;;;5093099;28;20083;-76
2021/09/06 07:07:45;;;;;;;27.85;20.95;;;23.90;99.90;;;;;;5092534;28;20518;-76
2021/09/06 07:10:14;;;;;;;29.48;21.85;;;23.70;99.90;;;;;;5092256;28;20051;-75
2021/09/06 07:12:41;;;;;;;24.85;22.08;;;23.70;99.90;;;;;;5092649;28;20411;-77
2021/09/06 07:15:10;;;;;;;27.67;21.48;;;23.90;99.90;;;;;;5092903;28;20151;-78
2021/09/06 07:17:37;;;;;;;26.17;22.15;;;24.00;99.90;;;;;;5092561;28;20484;-79
2021/09/06 07:20:05;;;;;;;26.75;22.20;;;24.10;99.90;;;;;;5091619;28;20582;-77
2021/09/06 07:22:32;;;;;;;32.53;23.08;;;24.20;99.90;;;;;;5091561;28;20052;-78
2021/09/06 07:24:59;;;;;;;26.85;22.02;;;24.50;99.90;;;;;;5092098;28;20055;-75
2021/09/06 07:27:28;;;;;;;26.38;22.58;;;24.90;99.90;;;;;;5091344;28;20051;-78
2021/09/06 07:29:54;;;;;;;25.92;23.23;;;25.10;99.90;;;;;;5091907;28;20134;-78
2021/09/06 07:32:21;;;;;;;26.17;22.20;;;25.40;99.90;;;;;;5084712;28;20084;-77
2021/09/06 07:34:48;;;;;;;27.48;21.52;;;25.80;99.90;;;;;;5084569;28;20079;-78
2021/09/06 07:37:15;;;;;;;31.98;21.48;;;26.00;99.90;;;;;;5091949;28;20539;-77
2021/09/06 07:39:46;;;;;;;25.83;22.13;;;26.10;99.90;;;;;;5071619;28;20143;-77
2021/09/06 07:42:13;;;;;;;24.77;22.05;;;26.20;99.90;;;;;;5071437;28;20138;-77
2021/09/06 07:44:42;;;;;;;26.38;23.48;;;26.40;99.90;;;;;;5071666;28;20140;-77
2021/09/06 07:47:09;;;;;;;28.50;24.75;;;26.10;99.90;;;;;;5086006;28;20138;-78
2021/09/06 07:49:36;;;;;;;29.13;25.23;;;25.80;99.90;;;;;;5090865;28;20083;-76
2021/09/06 07:52:04;;;;;;;29.42;24.95;;;25.80;99.90;;;;;;5091266;28;20044;-77
2021/09/06 07:54:30;;;;;;;28.05;23.88;;;25.80;99.90;;;;;;5091699;28;20095;-77
2021/09/06 07:56:57;;;;;;;26.95;24.10;;;25.80;99.90;;;;;;5091268;28;20075;-77
2021/09/06 07:59:24;;;;;;;27.92;24.95;;;26.10;99.90;;;;;;5091730;28;20127;-76
2021/09/06 08:01:55;;;;;;;28.95;24.40;;;26.10;99.90;;;;;;5091262;28;20504;-77
2021/09/06 08:04:22;;;;;;;29.83;24.80;;;26.30;99.90;;;;;;5091299;28;20047;-77
2021/09/06 08:06:49;;;;;;;28.48;24.25;;;26.50;99.90;;;;;;5091437;28;20135;-77
2021/09/06 08:09:16;;;;;;;31.33;24.90;;;26.70;99.90;;;;;;5091401;28;20584;-78
2021/09/06 08:11:46;;;;;;;31.27;25.65;;;26.50;99.90;;;;;;5090930;28;20310;-77
2021/09/06 08:14:13;;;;;;;30.17;25.23;;;26.50;99.90;;;;;;5091432;28;20131;-78
2021/09/06 08:16:40;;;;;;;27.15;24.20;;;26.90;99.90;;;;;;5091516;28;20052;-77
2021/09/06 08:19:08;;;;;;;32.70;25.10;;;27.00;99.90;;;;;;5091337;28;20056;-78
2021/09/06 08:21:35;;;;;;;28.65;24.85;;;26.80;99.90;;;;;;5091621;28;20123;-77
2021/09/06 08:24:02;;;;;;;30.42;24.52;;;26.80;99.90;;;;;;5091218;28;20422;-77
2021/09/06 08:26:29;;;;;;;26.85;23.92;;;26.80;99.90;;;;;;5091250;28;20058;-79
2021/09/06 08:28:56;;;;;;;24.27;21.67;;;26.70;99.90;;;;;;5091647;28;20079;-77
2021/09/06 08:31:24;;;;;;;27.35;23.13;;;26.90;99.90;;;;;;5090074;28;20145;-77
2021/09/06 08:33:51;;;;;;;28.67;23.92;;;26.80;99.90;;;;;;5091362;28;20056;-77
2021/09/06 08:36:19;;;;;;;26.55;23.15;;;26.80;99.90;;;;;;5091624;28;20120;-78
2021/09/06 08:38:46;;;;;;;27.30;22.55;;;26.80;99.90;;;;;;5091187;28;20136;-78
2021/09/06 08:41:13;;;;;;;28.50;22.48;;;26.90;99.90;;;;;;5091147;28;20064;-78
2021/09/06 08:43:40;;;;;;;27.30;22.42;;;27.00;99.90;;;;;;5091367;28;20302;-77
2021/09/06 08:46:07;;;;;;;27.92;23.58;;;27.10;99.90;;;;;;5090936;28;20146;-78
2021/09/06 08:48:34;;;;;;;27.52;22.40;;;27.30;99.90;;;;;;5093909;28;20147;-78
2021/09/06 08:51:01;;;;;;;27.08;24.23;;;27.50;99.90;;;;;;5094946;28;20044;-77
2021/09/06 08:53:29;;;;;;;28.90;23.27;;;27.50;99.90;;;;;;5094762;28;20165;-76
2021/09/06 08:55:56;;;;;;;29.05;23.58;;;27.30;99.90;;;;;;5094935;28;20135;-76
2021/09/06 08:58:23;;;;;;;24.90;21.48;;;26.90;99.90;;;;;;5094670;28;20075;-79
2021/09/06 09:00:51;;;;;;;27.17;22.92;;;26.90;99.90;;;;;;5095007;28;20130;-77
2021/09/06 09:03:19;;;;;;;25.50;22.33;;;26.80;99.90;;;;;;5094823;28;20392;-77
2021/09/06 09:06:00;;;;;;;25.65;22.35;;;26.60;99.90;;;;;;5094744;28;20135;-77
2021/09/06 09:08:28;;;;;;;26.95;21.00;;;26.90;99.90;;;;;;5095086;28;20052;-76
2021/09/06 09:11:00;;;;;;;28.10;22.83;;;27.10;99.90;;;;;;5091174;28;20040;-77
2021/09/06 09:13:28;;;;;;;;;;;26.90;99.90;;;;;;5092638;28;20428;-77
2021/09/06 09:15:57;;;;;;;27.83;21.98;;;26.80;99.90;;;;;;5094265;28;19927;-77
2021/09/06 09:18:25;;;;;;;26.30;21.88;;;26.40;99.90;;;;;;5093749;28;20048;-77
2021/09/06 09:21:00;;;;;;;27.33;22.80;;;26.20;99.90;;;;;;5092969;28;20131;-77
2021/09/06 09:23:39;;;;;;;24.17;21.45;;;25.80;99.90;;;;;;5092542;28;20131;-77
2021/09/06 09:26:06;;;;;;;32.70;21.13;;;25.50;99.90;;;;;;5092348;28;20130;-76
2021/09/06 09:28:37;;;;;;;27.20;21.73;;;25.60;99.90;;;;;;5094978;28;20051;-77
2021/09/06 09:31:09;;;;;;;27.85;21.27;;;25.50;99.90;;;;;;5094340;28;20126;-76
2021/09/06 09:33:45;;;;;;;25.50;19.80;;;25.50;99.90;;;;;;5094124;28;20127;-77
2021/09/06 09:36:12;;;;;;;24.02;21.17;;;25.40;99.90;;;;;;5094643;28;20053;-77
2021/09/06 09:38:41;;;;;;;25.98;19.10;;;25.40;99.90;;;;;;5094124;28;20475;-78
2021/09/06 09:41:16;;;;;;;26.17;18.90;;;25.30;99.90;;;;;;5093412;28;20077;-77
2021/09/06 09:43:43;;;;;;;23.73;17.58;;;25.40;99.90;;;;;;5094103;28;20056;-77
2021/09/06 09:46:10;;;;;;;23.65;18.05;;;25.20;99.90;;;;;;5093444;28;20456;-78
2021/09/06 09:48:38;;;;;;;25.17;19.48;;;25.00;99.90;;;;;;5094362;28;20047;-77
2021/09/06 09:51:08;;;;;;;22.08;18.27;;;24.90;99.90;;;;;;5093749;28;20080;-78
2021/09/06 09:53:35;;;;;;;21.17;18.20;;;24.80;99.90;;;;;;5090809;28;20500;-78
2021/09/06 09:56:04;;;;;;;24.92;18.73;;;24.80;99.90;;;;;;5091993;28;20085;-78
2021/09/06 09:58:31;;;;;;;23.15;17.88;;;24.70;99.90;;;;;;5093134;28;20044;-77
2021/09/06 10:01:02;;;;;;;21.05;18.70;;;24.80;99.90;;;;;;5092934;28;20059;-77
2021/09/06 10:03:33;;;;;;;24.60;19.67;;;24.90;99.90;;;;;;5093353;28;20143;-77
2021/09/06 10:06:02;;;;;;;22.63;18.02;;;24.70;99.90;;;;;;5093744;28;20055;-76
2021/09/06 10:08:29;;;;;;;26.80;19.90;;;24.70;99.90;;;;;;5094073;28;20137;-79
2021/09/06 10:10:56;;;;;;;24.35;18.45;;;24.70;99.90;;;;;;5093415;28;20103;-77
2021/09/06 10:13:26;;;;;;;22.77;19.20;;;24.70;99.90;;;;;;5090844;28;20039;-77
2021/09/06 10:16:01;;;;;;;24.55;19.30;;;24.80;99.90;;;;;;5093038;28;20063;-78
2021/09/06 10:18:37;;;;;;;25.20;19.67;;;24.80;99.90;;;;;;5085042;28;20140;-79
2021/09/06 10:21:12;;;;;;;22.17;18.48;;;25.00;99.90;;;;;;5087822;28;20524;-78
2021/09/06 10:23:43;;;;;;;24.17;18.95;;;25.20;99.90;;;;;;5093444;28;20044;-78
2021/09/06 10:26:11;;;;;;;26.52;19.88;;;25.40;99.90;;;;;;5091343;28;20046;-77
2021/09/06 10:28:40;;;;;;;22.15;19.52;;;25.60;99.90;;;;;;5093999;28;20052;-78
2021/09/06 10:31:26;;;;;;;28.33;21.45;;;25.70;99.90;;;;;;5094510;28;20108;-78
2021/09/06 10:33:59;;;;;;;30.35;22.80;;;25.80;99.90;;;;;;5093875;28;20070;-78
2021/09/06 10:36:26;;;;;;;;;;;25.80;99.90;;;;;;5093547;28;20040;-77
2021/09/06 10:39:01;;;;;;;31.95;25.33;;;25.50;99.90;;;;;;5093111;28;19980;-76
2021/09/06 10:41:28;;;;;;;28.85;25.00;;;25.40;99.90;;;;;;5093080;28;20072;-76
2021/09/06 10:43:59;;;;;;;30.33;25.42;;;25.40;99.90;;;;;;5093045;28;20130;-78
2021/09/06 10:46:27;;;;;;;30.88;26.30;;;25.40;99.90;;;;;;5093200;28;20131;-78
2021/09/06 10:49:01;;;;;;;32.63;25.75;;;25.50;99.90;;;;;;5092457;28;20564;-79
2021/09/06 10:51:30;;;;;;;31.25;27.35;;;25.70;99.90;;;;;;5092470;28;20052;-78
2021/09/06 10:53:58;;;;;;;32.10;27.13;;;25.70;99.90;;;;;;5092110;28;20050;-77
2021/09/06 10:56:26;;;;;;;32.08;26.83;;;25.60;99.90;;;;;;5081394;28;20068;-78
2021/09/06 10:58:54;;;;;;;27.17;23.83;;;25.70;99.90;;;;;;5093575;28;20048;-78
2021/09/06 11:01:22;;;;;;;22.27;18.15;;;25.40;99.90;;;;;;5098588;28;20353;-80
2021/09/06 11:03:51;;;;;;;20.40;18.05;;;25.60;99.90;;;;;;5096452;28;20469;-77
2021/09/06 11:06:20;;;;;;;22.45;19.77;;;25.60;99.90;;;;;;5093616;28;20125;-77
2021/09/06 11:08:47;;;;;;;25.65;22.27;;;25.80;99.90;;;;;;5093055;28;20051;-76
2021/09/06 11:11:14;;;;;;;26.65;23.05;;;25.90;99.90;;;;;;5092136;28;20403;-78
2021/09/06 11:13:44;;;;;;;29.70;24.75;;;25.90;99.90;;;;;;5093613;28;20547;-78
2021/09/06 11:16:13;;;;;;;30.80;25.08;;;25.90;99.90;;;;;;5091121;28;20048;-78
2021/09/06 11:18:43;;;;;;;29.60;25.30;;;25.80;99.90;;;;;;5090399;28;20123;-78
2021/09/06 11:21:11;;;;;;;31.52;25.42;;;25.90;99.90;;;;;;5076011;28;20500;-77
2021/09/06 11:23:40;;;;;;;27.67;23.08;;;26.00;99.90;;;;;;5072899;28;20132;-77
2021/09/06 11:26:09;;;;;;;26.98;23.00;;;26.10;99.90;;;;;;5085241;28;20093;-78
2021/09/06 11:28:43;;;;;;;30.02;25.15;;;26.20;99.90;;;;;;5093575;28;20179;-78
2021/09/06 11:31:10;;;;;;;31.10;25.20;;;26.30;99.90;;;;;;5091998;28;20036;-78
2021/09/06 11:33:37;;;;;;;32.25;23.90;;;26.40;99.90;;;;;;5093460;28;20147;-77
2021/09/06 11:36:05;;;;;;;28.00;22.63;;;26.40;99.90;;;;;;5092609;28;20068;-79
2021/09/06 11:38:32;;;;;;;27.58;22.10;;;26.40;99.90;;;;;;5093616;28;20052;-79
2021/09/06 11:40:59;;;;;;;25.35;22.33;;;26.40;99.90;;;;;;5092683;28;20457;-78
2021/09/06 11:43:26;;;;;;;28.58;24.10;;;26.50;99.90;;;;;;5092443;28;20151;-77
2021/09/06 11:46:00;;;;;;;27.13;22.80;;;26.40;99.90;;;;;;5092927;28;20131;-77
2021/09/06 11:48:27;;;;;;;24.08;20.63;;;26.30;99.90;;;;;;5093113;28;20098;-78
2021/09/06 11:50:54;;;;;;;25.67;21.27;;;26.30;99.90;;;;;;5092965;28;20123;-78
2021/09/06 11:53:23;;;;;;;26.23;22.50;;;26.30;99.90;;;;;;5092899;28;20082;-77
2021/09/06 11:55:51;;;;;;;30.75;22.35;;;26.20;99.90;;;;;;5093851;28;20495;-77
2021/09/06 11:58:18;;;;;;;24.08;21.05;;;26.20;99.90;;;;;;5093648;28;20411;-78
2021/09/06 12:00:45;;;;;;;27.92;19.90;;;26.30;99.90;;;;;;5093445;28;20398;-79
2021/09/06 12:03:23;;;;;;;25.65;21.83;;;26.40;99.90;;;;;;5093131;28;20078;-78
2021/09/06 12:05:51;;;;;;;26.48;20.55;;;26.50;99.90;;;;;;5092948;28;20135;-79
2021/09/06 12:08:18;;;;;;;25.77;20.30;;;26.50;99.90;;;;;;5093338;28;20135;-80
2021/09/06 12:10:47;;;;;;;26.25;21.75;;;26.60;99.90;;;;;;5092724;28;20130;-78
2021/09/06 12:13:21;;;;;;;24.90;21.65;;;26.60;99.90;;;;;;5093131;28;20093;-79
2021/09/06 12:15:56;;;;;;;27.15;20.83;;;26.50;99.90;;;;;;5093190;28;20052;-78
2021/09/06 12:18:33;;;;;;;25.52;21.02;;;26.70;99.90;;;;;;5092937;28;20136;-80
2021/09/06 12:21:03;;;;;;;23.50;20.10;;;26.70;99.90;;;;;;5084061;28;20076;-78
2021/09/06 12:23:31;;;;;;;24.40;20.05;;;26.80;99.90;;;;;;5098866;28;20140;-77
2021/09/06 12:26:02;;;;;;;26.80;20.63;;;26.90;99.90;;;;;;5097352;28;20123;-77
2021/09/06 12:28:30;;;;;;;24.92;20.30;;;26.90;99.90;;;;;;5089295;28;20111;-78
2021/09/06 12:30:59;;;;;;;28.30;21.52;;;26.90;99.90;;;;;;5097349;28;20116;-76